Mountville, Pennsylvania
Current Conditions -  °F | °C
As of 4:53 PM on Thursday 18 Dec 2014 (Local Time) from KLNS Reporting Station
Overcast Overcast  
Wind Chill: 27°   Ceiling: 3100
Heat Index: 34°   Visibility: 10mi
Dew Point: 24°   Wind: 9mph
Humidity: 67%   Direction: 310°NW
Pressure: 30.05"   Gusts: NA
Location:  40.04°N, 76.43°W
Report Text: KLNS 182153Z 31008KT 10SM OVC031 01/M04 A3005 RMK AO2 SLP181 T00111044
Loading
Personal Weather Stations






























Interactive Weather Map New forecast layout! Learn more

10-Day Weather Forecast

Advertisements
Track Severe Weather on mobile